createdAt,value
2018-11-21T00:01:37.899Z,35.33
2018-11-21T00:04:09.335Z,38.10
2018-11-21T00:06:40.690Z,36.40
2018-11-21T00:09:12.184Z,41.33
2018-11-21T00:11:43.663Z,34.30
2018-11-21T00:14:15.069Z,36.33
2018-11-21T00:16:46.527Z,39.10
2018-11-21T00:19:17.966Z,32.87
2018-11-21T00:21:49.418Z,33.13
2018-11-21T00:24:20.847Z,32.13
2018-11-21T00:26:52.448Z,31.23
2018-11-21T00:29:24.031Z,32.40
2018-11-21T00:31:55.510Z,31.80
2018-11-21T00:34:27.084Z,34.53
2018-11-21T00:36:58.513Z,32.53
2018-11-21T00:39:30.018Z,35.03
2018-11-21T00:42:01.569Z,30.77
2018-11-21T00:44:33.186Z,33.70
2018-11-21T00:47:04.670Z,30.37
2018-11-21T00:49:36.213Z,32.17
2018-11-21T00:52:08.012Z,34.57
2018-11-21T00:54:39.502Z,35.23
2018-11-21T00:57:11.181Z,30.60
2018-11-21T01:00:01.247Z,31.30
2018-11-21T01:02:32.714Z,32.47
2018-11-21T01:05:04.140Z,32.27
2018-11-21T01:07:54.166Z,35.67
2018-11-21T01:10:25.857Z,36.90
2018-11-21T01:13:16.474Z,34.37
2018-11-21T01:15:47.894Z,29.47
2018-11-21T01:18:19.434Z,34.00
2018-11-21T01:20:50.848Z,29.60
2018-11-21T01:23:22.421Z,33.23
2018-11-21T01:25:53.962Z,32.37
2018-11-21T01:28:25.524Z,29.07
2018-11-21T01:30:57.054Z,33.13
2018-11-21T01:33:28.518Z,33.97
2018-11-21T01:36:18.625Z,31.90
2018-11-21T01:38:50.073Z,32.17
2018-11-21T01:41:21.626Z,32.00
2018-11-21T01:43:53.026Z,27.70
2018-11-21T01:46:43.481Z,32.73
2018-11-21T01:49:14.987Z,33.77
2018-11-21T01:51:46.576Z,31.83
2018-11-21T01:54:36.709Z,34.43
2018-11-21T01:57:08.243Z,29.20
2018-11-21T01:59:58.604Z,33.70
2018-11-21T02:02:30.082Z,27.83
2018-11-21T02:05:01.588Z,31.67
2018-11-21T02:07:33.032Z,31.53
2018-11-21T02:10:04.480Z,31.20
2018-11-21T02:12:36.034Z,27.07
2018-11-21T02:15:07.617Z,30.57
2018-11-21T02:17:39.135Z,30.87
2018-11-21T02:20:29.292Z,28.83
2018-11-21T02:23:00.855Z,29.90
2018-11-21T02:25:32.506Z,28.23
2018-11-21T02:28:04.217Z,32.10
2018-11-21T02:30:35.672Z,30.23
2018-11-21T02:33:07.456Z,32.97
2018-11-21T02:35:57.884Z,31.20
2018-11-21T02:38:29.363Z,30.73
2018-11-21T02:41:00.852Z,29.87
2018-11-21T02:43:50.997Z,28.53
2018-11-21T02:46:22.472Z,31.43
2018-11-21T02:48:53.872Z,29.57
2018-11-21T02:51:25.369Z,28.70
2018-11-21T02:53:56.804Z,30.37
2018-11-21T02:57:06.768Z,29.97
2018-11-21T02:59:38.109Z,30.40
2018-11-21T03:02:09.442Z,27.40
2018-11-21T03:04:40.910Z,28.20
2018-11-21T03:07:12.373Z,30.30
2018-11-21T03:09:44.068Z,32.43
2018-11-21T03:12:34.089Z,25.87
2018-11-21T03:15:05.586Z,27.90
2018-11-21T03:17:37.031Z,26.37
2018-11-21T03:20:27.443Z,27.57
2018-11-21T03:22:58.757Z,27.20
2018-11-21T03:25:30.230Z,26.80
2018-11-21T03:28:01.645Z,24.63
2018-11-21T03:30:33.106Z,24.50
2018-11-21T03:33:04.655Z,22.93
2018-11-21T03:35:36.205Z,27.53
2018-11-21T03:38:07.762Z,25.10
2018-11-21T03:40:39.357Z,20.87
2018-11-21T03:43:10.861Z,22.03
2018-11-21T03:45:42.339Z,20.97
2018-11-21T03:48:13.921Z,25.90
2018-11-21T03:50:45.401Z,21.77
2018-11-21T03:53:16.890Z,24.17
2018-11-21T03:55:48.422Z,20.67
2018-11-21T03:58:19.902Z,20.03
2018-11-21T04:00:51.323Z,19.73
2018-11-21T04:03:22.910Z,21.13
2018-11-21T04:05:54.445Z,19.70
2018-11-21T04:11:42.109Z,17.40
2018-11-21T04:14:13.754Z,17.57
2018-11-21T04:16:45.311Z,17.20
2018-11-21T04:19:16.731Z,18.23
2018-11-21T04:22:07.190Z,18.50
2018-11-21T04:24:38.689Z,21.10
2018-11-21T04:27:10.171Z,20.47
2018-11-21T04:29:41.544Z,19.43
2018-11-21T04:32:13.155Z,17.87
2018-11-21T04:34:44.644Z,16.83
2018-11-21T04:37:16.019Z,16.23
2018-11-21T04:39:47.474Z,19.80
2018-11-21T04:42:18.960Z,19.43
2018-11-21T04:44:50.408Z,18.43
2018-11-21T04:47:22.010Z,16.80
2018-11-21T04:49:53.377Z,16.73
2018-11-21T04:52:24.906Z,17.77
2018-11-21T04:55:16.004Z,18.37
2018-11-21T04:57:47.473Z,19.33
2018-11-21T05:00:18.882Z,16.97
2018-11-21T05:03:08.961Z,15.23
2018-11-21T05:05:40.513Z,16.93
2018-11-21T05:08:11.977Z,17.40
2018-11-21T05:10:43.449Z,17.30
2018-11-21T05:13:14.885Z,16.80
2018-11-21T05:15:49.290Z,16.67
2018-11-21T05:18:31.622Z,16.40
2018-11-21T05:21:03.101Z,14.97
2018-11-21T05:23:34.663Z,16.83
2018-11-21T05:26:06.249Z,16.70
2018-11-21T05:28:56.539Z,15.77
2018-11-21T05:31:27.910Z,14.33
2018-11-21T05:34:17.951Z,13.57
2018-11-21T05:36:49.574Z,14.13
2018-11-21T05:39:21.118Z,15.10
2018-11-21T05:42:11.238Z,13.33
2018-11-21T05:45:01.337Z,13.37
2018-11-21T05:47:32.822Z,14.00
2018-11-21T05:50:04.286Z,13.90
2018-11-21T05:52:35.945Z,16.83
2018-11-21T05:55:07.690Z,14.90
2018-11-21T05:57:39.356Z,14.43
2018-11-21T06:00:13.003Z,13.37
2018-11-21T06:02:44.510Z,13.70
2018-11-21T06:05:15.929Z,14.70
2018-11-21T06:07:47.415Z,13.33
2018-11-21T06:10:18.980Z,15.27
2018-11-21T06:12:50.460Z,15.17
2018-11-21T06:15:21.950Z,18.07
2018-11-21T06:17:53.419Z,14.77
2018-11-21T06:20:43.754Z,14.10
2018-11-21T06:23:15.094Z,12.93
2018-11-21T06:25:46.564Z,14.57
2018-11-21T06:28:18.079Z,13.13
2018-11-21T06:30:49.522Z,15.40
2018-11-21T06:33:20.986Z,13.43
2018-11-21T06:35:52.419Z,14.23
2018-11-21T06:38:42.504Z,14.97
2018-11-21T06:41:13.954Z,13.30
2018-11-21T06:43:45.539Z,13.13
2018-11-21T06:46:16.944Z,12.50
2018-11-21T06:48:48.610Z,13.77
2018-11-21T06:51:20.086Z,12.40
2018-11-21T06:53:51.623Z,12.00
2018-11-21T06:56:23.155Z,12.30
2018-11-21T06:59:13.351Z,11.47
2018-11-21T07:02:03.437Z,11.87
2018-11-21T07:04:35.077Z,10.23
2018-11-21T07:07:06.814Z,12.20
2018-11-21T07:09:38.439Z,12.67
2018-11-21T07:12:09.959Z,13.40
2018-11-21T07:14:41.279Z,12.13
2018-11-21T07:17:12.776Z,13.13
2018-11-21T07:20:02.834Z,11.40
2018-11-21T07:22:34.362Z,10.80
2018-11-21T07:25:25.570Z,12.77
2018-11-21T07:27:57.110Z,10.87
2018-11-21T07:30:47.346Z,10.63
2018-11-21T07:33:18.745Z,11.10
2018-11-21T07:35:50.230Z,11.13
2018-11-21T07:38:21.827Z,10.70
2018-11-21T07:40:53.194Z,10.17
2018-11-21T07:43:24.720Z,10.77
2018-11-21T07:45:56.246Z,10.90
2018-11-21T07:48:27.708Z,10.97
2018-11-21T07:51:02.465Z,12.70
2018-11-21T07:53:57.964Z,10.60
2018-11-21T07:56:54.054Z,12.83
2018-11-21T07:59:25.454Z,13.13
2018-11-21T08:02:15.531Z,10.63
2018-11-21T08:04:51.221Z,11.67
2018-11-21T08:07:37.317Z,9.90
2018-11-21T08:10:27.549Z,11.00
2018-11-21T08:13:17.612Z,10.10
2018-11-21T08:16:07.614Z,9.70
2018-11-21T08:18:57.853Z,10.50
2018-11-21T08:22:06.695Z,10.27
2018-11-21T08:24:56.883Z,10.20
2018-11-21T08:27:39.254Z,10.53
2018-11-21T08:30:29.587Z,10.47
2018-11-21T08:33:19.617Z,11.37
2018-11-21T08:35:51.129Z,10.80
2018-11-21T08:38:22.638Z,12.50
2018-11-21T08:40:54.115Z,10.20
2018-11-21T08:43:25.536Z,9.37
2018-11-21T08:45:56.996Z,10.40
2018-11-21T08:48:28.602Z,13.90
2018-11-21T08:51:00.135Z,9.77
2018-11-21T08:53:31.667Z,11.13
2018-11-21T08:56:03.056Z,10.93
2018-11-21T08:58:34.600Z,9.93
2018-11-21T09:01:06.527Z,9.77
2018-11-21T09:03:38.002Z,11.40
2018-11-21T09:06:28.065Z,10.30
2018-11-21T09:09:18.045Z,8.80
2018-11-21T09:11:49.592Z,9.73
2018-11-21T09:14:21.016Z,10.50
2018-11-21T09:17:11.067Z,10.00
2018-11-21T09:20:01.667Z,9.33
2018-11-21T09:22:33.181Z,10.63
2018-11-21T09:25:05.093Z,9.27
2018-11-21T09:27:55.190Z,10.03
2018-11-21T09:30:26.756Z,11.87
2018-11-21T09:32:58.993Z,10.43
2018-11-21T09:35:32.561Z,10.87
2018-11-21T09:38:04.614Z,11.30
2018-11-21T09:40:35.989Z,10.17
2018-11-21T09:43:07.930Z,10.93
2018-11-21T09:46:19.538Z,10.37
2018-11-21T09:52:22.879Z,11.30
2018-11-21T09:54:54.337Z,13.03
2018-11-21T09:57:25.647Z,11.30
2018-11-21T09:59:56.953Z,11.57
2018-11-21T10:03:06.272Z,10.73
2018-11-21T10:06:17.582Z,10.83
2018-11-21T10:09:46.407Z,9.93
2018-11-21T10:12:57.090Z,10.57
2018-11-21T10:18:46.734Z,11.13
2018-11-21T10:21:39.604Z,10.30
2018-11-21T10:24:49.284Z,12.07
2018-11-21T10:27:22.449Z,9.77
2018-11-21T10:29:55.281Z,10.30
2018-11-21T10:32:47.280Z,11.40
2018-11-21T10:35:37.451Z,12.07
2018-11-21T10:38:08.686Z,11.77
2018-11-21T10:40:40.236Z,12.43
2018-11-21T10:43:11.437Z,12.57
2018-11-21T10:45:44.316Z,13.80
2018-11-21T10:48:15.490Z,12.23
2018-11-21T10:50:46.676Z,12.13
2018-11-21T10:53:17.906Z,10.67
2018-11-21T10:55:49.085Z,12.10
2018-11-21T10:58:20.406Z,12.40
2018-11-21T11:01:10.923Z,9.73
2018-11-21T11:04:01.218Z,11.20
2018-11-21T11:06:48.275Z,13.03
2018-11-21T11:09:38.298Z,11.43
2018-11-21T11:12:28.515Z,11.73
2018-11-21T11:15:28.663Z,10.07
2018-11-21T11:18:18.790Z,9.47
2018-11-21T11:21:09.022Z,9.20
2018-11-21T11:24:18.174Z,10.63
2018-11-21T11:27:05.165Z,11.57
2018-11-21T11:29:46.449Z,10.47
2018-11-21T11:32:36.638Z,10.30
2018-11-21T11:35:27.137Z,10.70
2018-11-21T11:38:17.135Z,10.00
2018-11-21T11:41:07.593Z,15.27
2018-11-21T11:44:00.589Z,9.17
2018-11-21T11:47:09.428Z,9.17
2018-11-21T11:49:59.590Z,9.57
2018-11-21T11:52:47.064Z,8.97
2018-11-21T11:55:37.469Z,10.23
2018-11-21T11:58:27.786Z,9.83
2018-11-21T12:01:15.625Z,9.27
2018-11-21T12:04:05.766Z,11.43
2018-11-21T12:06:55.770Z,11.20
2018-11-21T12:09:45.942Z,13.40
2018-11-21T12:12:40.122Z,10.23
2018-11-21T12:15:27.304Z,10.57
2018-11-21T12:18:17.270Z,13.17
2018-11-21T12:21:26.209Z,13.70
2018-11-21T12:24:16.350Z,23.43
2018-11-21T12:27:12.432Z,15.00
2018-11-21T12:30:02.499Z,10.30
2018-11-21T12:32:52.455Z,10.23
2018-11-21T12:35:42.495Z,10.53
2018-11-21T12:42:19.733Z,8.33
2018-11-21T12:45:09.823Z,9.53
2018-11-21T12:47:59.828Z,10.33
2018-11-21T12:50:52.977Z,12.83
2018-11-21T12:53:43.024Z,10.13
2018-11-21T12:56:33.250Z,8.67
2018-11-21T12:59:23.303Z,10.30
2018-11-21T13:02:13.582Z,9.97
2018-11-21T13:05:03.749Z,14.47
2018-11-21T13:07:53.855Z,11.50
2018-11-21T13:10:44.096Z,9.53
2018-11-21T13:13:53.023Z,9.40
2018-11-21T13:16:43.258Z,9.13
2018-11-21T13:19:33.236Z,10.63
2018-11-21T13:22:42.187Z,10.33
2018-11-21T13:25:32.443Z,11.57
2018-11-21T13:28:22.490Z,9.77
2018-11-21T13:31:12.737Z,11.13
2018-11-21T13:34:03.663Z,12.83
2018-11-21T13:36:53.864Z,11.43
2018-11-21T13:39:43.971Z,10.73
2018-11-21T13:42:34.025Z,11.10
2018-11-21T13:45:24.253Z,10.23
2018-11-21T13:48:14.584Z,10.17
2018-11-21T13:51:04.752Z,11.13
2018-11-21T13:53:54.682Z,11.40
2018-11-21T13:56:26.327Z,10.97
2018-11-21T13:58:57.903Z,11.30
2018-11-21T14:01:29.521Z,9.97
2018-11-21T14:04:01.095Z,11.73
2018-11-21T14:06:51.366Z,11.07
2018-11-21T14:09:23.584Z,11.73
2018-11-21T14:11:55.269Z,9.60
2018-11-21T14:14:26.672Z,12.67
2018-11-21T14:17:00.581Z,11.20
2018-11-21T14:19:32.218Z,11.23
2018-11-21T14:22:03.762Z,12.70
2018-11-21T14:24:35.203Z,49.23
2018-11-21T14:27:06.748Z,33.10
2018-11-21T14:29:38.256Z,17.40
2018-11-21T14:32:09.652Z,14.43
2018-11-21T14:34:41.354Z,14.73
2018-11-21T14:37:13.356Z,14.13
2018-11-21T14:39:45.092Z,15.30
2018-11-21T14:42:16.512Z,14.73
2018-11-21T14:44:48.020Z,13.43
2018-11-21T14:47:38.129Z,15.30
2018-11-21T14:50:14.158Z,29.53
2018-11-21T14:53:04.617Z,19.10
2018-11-21T14:55:55.011Z,15.53
2018-11-21T14:58:26.590Z,10.60
2018-11-21T15:01:16.932Z,10.33
2018-11-21T15:04:26.364Z,13.37
2018-11-21T15:07:16.670Z,10.57
2018-11-21T15:10:07.038Z,10.87
2018-11-21T15:12:57.395Z,13.07
2018-11-21T15:15:47.842Z,13.13
2018-11-21T15:18:19.640Z,12.20
2018-11-21T15:20:51.601Z,12.13
2018-11-21T15:23:22.943Z,17.30
2018-11-21T15:25:54.411Z,11.13
2018-11-21T15:28:25.528Z,13.07
2018-11-21T15:30:57.501Z,11.00
2018-11-21T15:33:47.553Z,12.80
2018-11-21T15:36:19.134Z,12.07
2018-11-21T15:38:50.576Z,13.00
2018-11-21T15:41:22.329Z,11.73
2018-11-21T15:43:54.162Z,11.00
2018-11-21T15:46:25.887Z,11.97
2018-11-21T15:49:16.970Z,12.67
2018-11-21T15:51:48.551Z,13.10
2018-11-21T15:54:20.214Z,11.83
2018-11-21T15:56:51.725Z,15.73
2018-11-21T15:59:23.292Z,12.73
2018-11-21T16:01:55.236Z,12.30
2018-11-21T16:04:26.830Z,18.80
2018-11-21T16:06:58.366Z,13.23
2018-11-21T16:09:29.824Z,13.03
2018-11-21T16:12:01.224Z,13.40
2018-11-21T16:14:51.488Z,12.40
2018-11-21T16:17:41.772Z,11.80
2018-11-21T16:20:16.141Z,14.73
2018-11-21T16:23:06.566Z,13.30
2018-11-21T16:25:41.493Z,12.50
2018-11-21T16:28:12.475Z,19.20
2018-11-21T16:31:02.515Z,48.23
2018-11-21T16:33:52.653Z,14.40
2018-11-21T16:36:27.258Z,14.07
2018-11-21T16:38:56.680Z,14.43
2018-11-21T16:41:47.816Z,16.73
2018-11-21T16:44:19.441Z,16.10
2018-11-21T16:47:11.454Z,14.37
2018-11-21T16:49:42.935Z,15.47
2018-11-21T16:52:33.304Z,13.67
2018-11-21T16:55:06.303Z,15.83
2018-11-21T16:57:56.306Z,17.00
2018-11-21T17:00:29.072Z,12.90
2018-11-21T17:03:00.623Z,14.97
2018-11-21T17:05:32.278Z,13.57
2018-11-21T17:08:03.777Z,13.70
2018-11-21T17:10:54.810Z,12.40
2018-11-21T17:13:51.972Z,13.57
2018-11-21T17:16:43.969Z,15.17
2018-11-21T17:19:16.090Z,14.10
2018-11-21T17:22:06.615Z,13.30
2018-11-21T17:27:54.592Z,15.47
2018-11-21T17:30:26.215Z,14.93
2018-11-21T17:32:57.880Z,16.90
2018-11-21T17:35:29.369Z,14.60
2018-11-21T17:38:03.363Z,17.93
2018-11-21T17:40:55.895Z,15.30
2018-11-21T17:43:37.916Z,15.40
2018-11-21T17:46:48.249Z,15.53
2018-11-21T17:49:38.261Z,15.37
2018-11-21T17:52:28.579Z,15.63
2018-11-21T17:55:00.071Z,17.23
2018-11-21T17:57:52.080Z,15.50
2018-11-21T18:00:26.768Z,13.57
2018-11-21T18:02:58.350Z,12.90
2018-11-21T18:05:48.809Z,13.73
2018-11-21T18:08:39.167Z,15.40
2018-11-21T18:11:30.440Z,15.47
2018-11-21T18:14:02.148Z,14.67
2018-11-21T18:19:24.741Z,16.00
2018-11-21T18:22:17.215Z,15.27
2018-11-21T18:24:48.798Z,15.37
2018-11-21T18:27:20.365Z,13.77
2018-11-21T18:30:29.566Z,14.80
2018-11-21T18:33:20.688Z,14.30
2018-11-21T18:39:04.300Z,15.07
2018-11-21T18:41:35.982Z,15.30
2018-11-21T18:44:19.407Z,14.73
2018-11-21T18:46:50.976Z,17.07
2018-11-21T18:49:22.378Z,14.53
2018-11-21T18:51:56.183Z,15.97
2018-11-21T18:54:27.731Z,16.37
2018-11-21T18:57:29.951Z,16.33
2018-11-21T19:00:22.944Z,15.23
2018-11-21T19:02:54.480Z,16.20
2018-11-21T19:05:25.999Z,14.80
2018-11-21T19:07:57.732Z,15.37
2018-11-21T19:10:29.351Z,16.57
2018-11-21T19:13:00.968Z,16.27
2018-11-21T19:15:32.492Z,17.20
2018-11-21T19:18:03.975Z,15.93
2018-11-21T19:20:35.515Z,15.87
2018-11-21T19:23:07.058Z,19.30
2018-11-21T19:25:57.373Z,19.57
2018-11-21T19:28:28.957Z,20.63
2018-11-21T19:31:00.599Z,17.77
2018-11-21T19:33:32.163Z,15.83
2018-11-21T19:36:03.552Z,16.57
2018-11-21T19:38:35.181Z,18.63
2018-11-21T19:41:06.727Z,16.83
2018-11-21T19:43:38.209Z,16.47
2018-11-21T19:46:09.652Z,16.57
2018-11-21T19:48:41.214Z,16.27
2018-11-21T19:51:13.478Z,16.87
2018-11-21T19:54:03.482Z,18.47
2018-11-21T19:56:35.037Z,20.17
2018-11-21T19:59:06.606Z,18.17
2018-11-21T20:01:38.126Z,17.03
2018-11-21T20:04:29.370Z,18.00
2018-11-21T20:07:00.978Z,17.47
2018-11-21T20:09:53.302Z,15.60
2018-11-21T20:12:46.018Z,15.93
2018-11-21T20:15:36.218Z,16.87
2018-11-21T20:18:26.860Z,16.33
2018-11-21T20:24:14.281Z,17.63
2018-11-21T20:26:45.763Z,15.83
2018-11-21T20:29:17.249Z,16.50
2018-11-21T20:31:48.783Z,17.57
2018-11-21T20:34:39.091Z,19.23
2018-11-21T20:37:11.519Z,17.13
2018-11-21T20:39:46.961Z,17.50
2018-11-21T20:42:14.398Z,16.30
2018-11-21T20:44:46.795Z,15.63
2018-11-21T20:47:18.194Z,19.87
2018-11-21T20:49:49.893Z,18.47
2018-11-21T20:52:21.370Z,17.73
2018-11-21T20:54:52.759Z,17.77
2018-11-21T20:57:24.261Z,17.17
2018-11-21T21:00:14.339Z,18.27
2018-11-21T21:02:45.871Z,17.20
2018-11-21T21:09:11.558Z,16.67
2018-11-21T21:11:43.111Z,17.37
2018-11-21T21:14:14.649Z,16.00
2018-11-21T21:16:46.216Z,17.53
2018-11-21T21:19:36.231Z,16.37
2018-11-21T21:22:26.663Z,16.83
2018-11-21T21:24:58.116Z,16.50
2018-11-21T21:27:29.511Z,16.73
2018-11-21T21:30:19.607Z,16.60
2018-11-21T21:32:51.031Z,14.93
2018-11-21T21:35:23.433Z,16.23
2018-11-21T21:37:54.958Z,16.13
2018-11-21T21:40:26.479Z,14.60
2018-11-21T21:42:58.053Z,15.00
2018-11-21T21:45:30.607Z,15.13
2018-11-21T21:48:02.114Z,14.60
2018-11-21T21:50:52.144Z,15.00
2018-11-21T21:53:23.643Z,15.67
2018-11-21T21:55:55.143Z,18.10
2018-11-21T21:58:26.753Z,16.13
2018-11-21T22:00:58.269Z,17.40
2018-11-21T22:03:29.614Z,17.13
2018-11-21T22:06:19.941Z,15.77
2018-11-21T22:08:51.576Z,17.40
2018-11-21T22:11:23.091Z,16.63
2018-11-21T22:13:54.552Z,16.20
2018-11-21T22:16:25.947Z,15.80
2018-11-21T22:18:57.305Z,16.13
2018-11-21T22:21:28.928Z,17.70
2018-11-21T22:24:00.644Z,17.73
